Mecheria, Algeria
Current Conditions -  °F | °C
As of 7:00 AM on Sunday 23 Nov 2014 (Local Time) from DAAY Reporting Station
Broken Clouds Broken Clouds  
Wind Chill: 54°   Ceiling: 10000
Heat Index: 54°   Visibility: 4mi
Dew Point: 39°   Wind: 7mph
Humidity: 58%   Direction: 190°S
Pressure: 30.12"   Gusts: NA
Location:  33.55°N, 0.28°W
Report Text: DAAY 230600Z 19006KT 7000 SCT030 BKN100 12/04 Q1020
Loading
Personal Weather Stations






























Interactive Weather Map New forecast layout! Learn more

10-Day Weather Forecast

Advertisements
Track Severe Weather on mobile